createdAt,value
2016-11-04T00:00:28.901Z,0
2016-11-04T00:01:43.482Z,0
2016-11-04T00:02:28.536Z,0
2016-11-04T00:03:28.556Z,0
2016-11-04T00:04:43.483Z,0
2016-11-04T00:05:28.573Z,0
2016-11-04T00:06:28.695Z,0
2016-11-04T00:07:28.615Z,0
2016-11-04T00:08:43.548Z,0
2016-11-04T00:09:43.561Z,0
2016-11-04T00:10:28.670Z,0
2016-11-04T00:11:28.679Z,0
2016-11-04T00:12:28.699Z,0
2016-11-04T00:13:43.623Z,0
2016-11-04T00:14:28.725Z,0
2016-11-04T00:15:43.659Z,0
2016-11-04T00:16:28.762Z,0
2016-11-04T00:17:43.704Z,0
2016-11-04T00:18:28.831Z,0
2016-11-04T00:19:28.814Z,0
2016-11-04T00:20:28.834Z,0
2016-11-04T00:21:28.881Z,0
2016-11-04T00:22:43.778Z,0
2016-11-04T00:23:43.806Z,0
2016-11-04T00:24:28.903Z,0
2016-11-04T00:25:28.926Z,0
2016-11-04T00:26:28.938Z,0
2016-11-04T00:28:29.002Z,0
2016-11-04T00:29:28.986Z,0
2016-11-04T00:30:58.927Z,0
2016-11-04T00:31:29.015Z,0
2016-11-04T00:32:29.069Z,0
2016-11-04T00:33:43.962Z,0
2016-11-04T00:34:29.066Z,0
2016-11-04T00:35:29.085Z,0
2016-11-04T00:36:29.353Z,0
2016-11-04T00:37:29.111Z,0
2016-11-04T00:38:29.129Z,0
2016-11-04T00:39:29.169Z,0
2016-11-04T00:40:29.208Z,0
2016-11-04T00:41:29.219Z,0
2016-11-04T00:42:29.198Z,0
2016-11-04T00:43:29.210Z,0
2016-11-04T00:44:44.162Z,0
2016-11-04T00:45:29.250Z,0
2016-11-04T00:46:29.278Z,0
2016-11-04T00:47:29.280Z,0
2016-11-04T00:48:29.297Z,0
2016-11-04T00:49:59.160Z,0
2016-11-04T00:50:29.329Z,0
2016-11-04T00:51:29.354Z,0
2016-11-04T00:52:29.373Z,0
2016-11-04T00:54:29.432Z,0
2016-11-04T00:55:29.461Z,0
2016-11-04T00:56:29.434Z,0
2016-11-04T00:57:29.460Z,0
2016-11-04T00:58:29.473Z,0
2016-11-04T00:59:29.499Z,0
2016-11-04T01:00:29.497Z,0
2016-11-04T01:01:29.866Z,0
2016-11-04T01:02:29.555Z,0
2016-11-04T01:03:29.553Z,0
2016-11-04T01:04:44.484Z,0
2016-11-04T01:05:29.587Z,0
2016-11-04T01:06:44.519Z,0
2016-11-04T01:07:29.653Z,0
2016-11-04T01:08:29.633Z,0
2016-11-04T01:09:29.655Z,0
2016-11-04T01:10:29.673Z,0
2016-11-04T01:11:29.693Z,0
2016-11-04T01:12:44.619Z,0
2016-11-04T01:13:44.643Z,0
2016-11-04T01:14:29.729Z,0
2016-11-04T01:15:44.717Z,0
2016-11-04T01:16:29.776Z,0
2016-11-04T01:17:29.790Z,0
2016-11-04T01:18:29.802Z,0
2016-11-04T01:19:29.827Z,0
2016-11-04T01:20:29.846Z,0
2016-11-04T01:21:29.863Z,0
2016-11-04T01:22:29.876Z,0
2016-11-04T01:23:29.885Z,0
2016-11-04T01:24:44.821Z,0
2016-11-04T01:25:29.917Z,0
2016-11-04T01:26:29.950Z,0
2016-11-04T01:27:44.873Z,0
2016-11-04T01:28:29.976Z,0
2016-11-04T01:29:29.989Z,0
2016-11-04T01:30:30.058Z,0
2016-11-04T01:33:30.055Z,0
2016-11-04T01:34:30.075Z,0
2016-11-04T01:35:30.100Z,0
2016-11-04T01:36:45.034Z,0
2016-11-04T01:37:30.127Z,0
2016-11-04T01:38:30.142Z,0
2016-11-04T01:39:30.153Z,0
2016-11-04T01:40:30.171Z,0
2016-11-04T01:43:00.047Z,0
2016-11-04T01:43:30.233Z,0
2016-11-04T01:44:30.252Z,0
2016-11-04T01:45:45.189Z,0
2016-11-04T01:46:30.273Z,0
2016-11-04T01:47:45.213Z,0
2016-11-04T01:48:30.615Z,0
2016-11-04T01:49:30.365Z,0
2016-11-04T01:50:45.261Z,0
2016-11-04T01:51:30.361Z,0
2016-11-04T01:52:45.302Z,0
2016-11-04T01:53:30.397Z,0
2016-11-04T01:54:30.421Z,0
2016-11-04T01:55:30.437Z,0
2016-11-04T01:56:30.451Z,0
2016-11-04T01:57:45.384Z,0
2016-11-04T01:58:30.473Z,0
2016-11-04T01:59:45.417Z,0
2016-11-04T02:00:30.509Z,0
2016-11-04T02:01:30.541Z,0
2016-11-04T02:02:30.791Z,0
2016-11-04T02:03:45.478Z,0
2016-11-04T02:04:30.579Z,0
2016-11-04T02:05:30.605Z,0
2016-11-04T02:07:45.552Z,0
2016-11-04T02:08:45.586Z,0
2016-11-04T02:09:30.667Z,0
2016-11-04T02:10:30.689Z,0
2016-11-04T02:12:30.729Z,0
2016-11-04T02:13:30.736Z,0
2016-11-04T02:14:30.762Z,0
2016-11-04T02:15:30.769Z,0
2016-11-04T02:16:45.711Z,0
2016-11-04T02:18:30.825Z,0
2016-11-04T02:19:30.834Z,0
2016-11-04T02:20:31.108Z,0
2016-11-04T02:21:45.794Z,0
2016-11-04T02:22:45.849Z,0
2016-11-04T02:23:30.912Z,0
2016-11-04T02:24:45.835Z,0
2016-11-04T02:25:30.939Z,0
2016-11-04T02:26:45.877Z,0
2016-11-04T02:27:30.976Z,0
2016-11-04T02:28:30.990Z,0
2016-11-04T02:29:31.030Z,0
2016-11-04T02:31:31.035Z,0
2016-11-04T02:33:31.080Z,0
2016-11-04T02:34:31.092Z,0
2016-11-04T02:35:31.119Z,0
2016-11-04T02:36:31.136Z,0
2016-11-04T02:37:31.179Z,0
2016-11-04T02:38:31.168Z,0
2016-11-04T02:40:01.323Z,0
2016-11-04T02:40:31.197Z,0
2016-11-04T02:41:31.218Z,0
2016-11-04T02:42:31.274Z,0
2016-11-04T02:43:31.244Z,0
2016-11-04T02:44:31.265Z,0
2016-11-04T02:45:46.201Z,0
2016-11-04T02:46:31.299Z,0
2016-11-04T02:47:46.232Z,0
2016-11-04T02:48:31.339Z,0
2016-11-04T02:49:31.351Z,0
2016-11-04T02:50:46.292Z,0
2016-11-04T02:51:31.895Z,0
2016-11-04T02:52:31.407Z,0
2016-11-04T02:53:31.726Z,0
2016-11-04T02:54:31.445Z,0
2016-11-04T02:55:31.451Z,0
2016-11-04T02:56:31.467Z,0
2016-11-04T02:57:46.409Z,0
2016-11-04T02:58:31.514Z,0
2016-11-04T02:59:46.441Z,0
2016-11-04T03:00:31.837Z,0
2016-11-04T03:01:46.776Z,0
2016-11-04T03:02:46.497Z,0
2016-11-04T03:03:31.592Z,0
2016-11-04T03:04:31.606Z,0
2016-11-04T03:05:31.619Z,0
2016-11-04T03:06:31.984Z,0
2016-11-04T03:07:31.662Z,0
2016-11-04T03:08:31.682Z,0
2016-11-04T03:09:31.685Z,0
2016-11-04T03:10:31.714Z,0
2016-11-04T03:11:47.004Z,0
2016-11-04T03:12:32.046Z,0
2016-11-04T03:13:46.686Z,0
2016-11-04T03:14:31.815Z,0
2016-11-04T03:15:31.792Z,0
2016-11-04T03:16:31.847Z,0
2016-11-04T03:17:32.082Z,0
2016-11-04T03:18:31.851Z,0
2016-11-04T03:19:46.792Z,0
2016-11-04T03:20:31.890Z,0
2016-11-04T03:21:32.195Z,0
2016-11-04T03:22:31.923Z,0
2016-11-04T03:23:31.937Z,0
2016-11-04T03:24:46.879Z,0
2016-11-04T03:25:32.308Z,0
2016-11-04T03:26:32.287Z,0
2016-11-04T03:27:46.919Z,0
2016-11-04T03:28:32.019Z,0
2016-11-04T03:29:32.037Z,0
2016-11-04T03:30:32.099Z,0
2016-11-04T03:31:32.074Z,0
2016-11-04T03:32:32.085Z,0
2016-11-04T03:33:32.107Z,0
2016-11-04T03:34:32.372Z,0
2016-11-04T03:35:32.184Z,0
2016-11-04T03:36:32.152Z,0
2016-11-04T03:37:47.089Z,0
2016-11-04T03:38:32.224Z,0
2016-11-04T03:39:32.210Z,0
2016-11-04T03:40:47.440Z,0
2016-11-04T03:41:32.242Z,0
2016-11-04T03:42:32.264Z,0
2016-11-04T03:44:02.118Z,0
2016-11-04T03:44:32.298Z,0
2016-11-04T03:45:32.307Z,0
2016-11-04T03:46:32.337Z,0
2016-11-04T03:47:32.345Z,0
2016-11-04T03:48:32.664Z,0
2016-11-04T03:49:32.690Z,0
2016-11-04T03:50:32.696Z,0
2016-11-04T03:51:32.419Z,0
2016-11-04T03:52:32.447Z,0
2016-11-04T03:53:32.448Z,0
2016-11-04T03:54:32.469Z,0
2016-11-04T03:55:32.485Z,0
2016-11-04T03:56:32.501Z,0
2016-11-04T03:57:32.529Z,0
2016-11-04T03:58:32.539Z,0
2016-11-04T03:59:47.483Z,0
2016-11-04T04:00:32.568Z,0
2016-11-04T04:01:32.585Z,0
2016-11-04T04:02:47.520Z,0
2016-11-04T04:04:47.555Z,0
2016-11-04T04:05:32.661Z,0
2016-11-04T04:06:32.675Z,0
2016-11-04T04:07:47.603Z,0
2016-11-04T04:09:15.081Z,0
2016-11-04T04:10:32.748Z,0
2016-11-04T04:11:32.767Z,0
2016-11-04T04:12:32.786Z,0
2016-11-04T04:13:32.798Z,0
2016-11-04T04:14:47.721Z,0
2016-11-04T04:15:32.817Z,0
2016-11-04T04:16:32.835Z,0
2016-11-04T04:17:32.850Z,0
2016-11-04T04:18:32.865Z,0
2016-11-04T04:19:47.801Z,0
2016-11-04T04:20:32.893Z,0
2016-11-04T04:21:32.918Z,0
2016-11-04T04:22:32.968Z,0
2016-11-04T04:23:32.951Z,0
2016-11-04T04:24:32.972Z,0
2016-11-04T04:25:32.990Z,0
2016-11-04T04:26:47.921Z,0
2016-11-04T04:27:47.945Z,0
2016-11-04T04:28:33.042Z,0
2016-11-04T04:29:33.069Z,0
2016-11-04T04:30:47.997Z,0
2016-11-04T04:31:33.091Z,0
2016-11-04T04:32:33.105Z,0
2016-11-04T04:33:33.123Z,0
2016-11-04T04:34:33.141Z,0
2016-11-04T04:35:33.160Z,0
2016-11-04T04:36:33.180Z,0
2016-11-04T04:37:33.197Z,0
2016-11-04T04:38:33.263Z,0
2016-11-04T04:39:33.234Z,0
2016-11-04T04:40:33.247Z,0
2016-11-04T04:41:48.186Z,0
2016-11-04T04:43:33.504Z,0
2016-11-04T04:44:33.359Z,0
2016-11-04T04:45:33.343Z,0
2016-11-04T04:46:48.276Z,0
2016-11-04T04:47:48.293Z,0
2016-11-04T04:48:33.393Z,0
2016-11-04T04:49:33.400Z,0
2016-11-04T04:50:33.424Z,0
2016-11-04T04:51:33.450Z,0
2016-11-04T04:52:33.470Z,0
2016-11-04T04:53:33.479Z,0
2016-11-04T04:54:33.492Z,0
2016-11-04T04:55:48.732Z,0
2016-11-04T04:56:33.533Z,0
2016-11-04T04:57:33.551Z,0
2016-11-04T04:58:33.578Z,0
2016-11-04T04:59:33.623Z,0
2016-11-04T05:00:33.599Z,0
2016-11-04T05:01:33.623Z,0
2016-11-04T05:02:48.559Z,0
2016-11-04T05:03:33.669Z,0
2016-11-04T05:04:33.968Z,0
2016-11-04T05:05:48.915Z,0
2016-11-04T05:06:33.704Z,0
2016-11-04T05:07:33.724Z,0
2016-11-04T05:08:33.758Z,0
2016-11-04T05:09:33.791Z,0
2016-11-04T05:10:48.703Z,0
2016-11-04T05:12:34.112Z,0
2016-11-04T05:13:34.152Z,0
2016-11-04T05:14:48.768Z,0
2016-11-04T05:15:48.794Z,0
2016-11-04T05:16:33.885Z,0
2016-11-04T05:17:33.902Z,0
2016-11-04T05:18:48.841Z,0
2016-11-04T05:19:48.890Z,0
2016-11-04T05:20:33.954Z,0
2016-11-04T05:21:48.892Z,0
2016-11-04T05:22:33.992Z,0
2016-11-04T05:23:34.014Z,0
2016-11-04T05:24:34.024Z,0
2016-11-04T05:26:34.053Z,0
2016-11-04T05:27:34.084Z,0
2016-11-04T05:29:34.118Z,0
2016-11-04T05:30:34.137Z,0
2016-11-04T05:31:34.154Z,0
2016-11-04T05:32:49.084Z,0
2016-11-04T05:33:34.188Z,0
2016-11-04T05:34:49.125Z,0
2016-11-04T05:35:49.141Z,0
2016-11-04T05:36:34.230Z,0
2016-11-04T05:37:34.260Z,0
2016-11-04T05:38:34.272Z,0
2016-11-04T05:39:49.220Z,0
2016-11-04T05:40:34.320Z,0
2016-11-04T05:42:34.376Z,0
2016-11-04T05:43:34.368Z,0
2016-11-04T05:44:34.412Z,0
2016-11-04T05:45:34.405Z,0
2016-11-04T05:46:34.417Z,0
2016-11-04T05:47:34.432Z,0
2016-11-04T05:48:34.463Z,0
2016-11-04T05:49:49.396Z,0
2016-11-04T05:50:34.500Z,0
2016-11-04T05:51:34.851Z,0
2016-11-04T05:52:34.517Z,0
2016-11-04T05:53:34.549Z,0
2016-11-04T05:54:34.559Z,0
2016-11-04T05:55:34.576Z,0
2016-11-04T05:57:04.444Z,0
2016-11-04T05:57:34.618Z,0
2016-11-04T05:58:34.640Z,0
2016-11-04T05:59:34.649Z,0
2016-11-04T06:00:34.663Z,0
2016-11-04T06:01:34.680Z,0
2016-11-04T06:02:34.702Z,0
2016-11-04T06:03:34.715Z,0
2016-11-04T06:04:34.838Z,0
2016-11-04T06:05:34.753Z,0
2016-11-04T06:06:49.688Z,0
2016-11-04T06:07:34.789Z,0
2016-11-04T06:08:34.806Z,0
2016-11-04T06:09:49.743Z,0
2016-11-04T06:10:34.851Z,0
2016-11-04T06:11:34.859Z,0
2016-11-04T06:12:34.877Z,0
2016-11-04T06:13:34.925Z,0
2016-11-04T06:14:34.907Z,0
2016-11-04T06:15:34.933Z,0
2016-11-04T06:16:34.946Z,0
2016-11-04T06:17:34.960Z,0
2016-11-04T06:18:34.993Z,0
2016-11-04T06:19:35.006Z,0
2016-11-04T06:20:35.024Z,0
2016-11-04T06:21:49.961Z,0
2016-11-04T06:22:49.977Z,0
2016-11-04T06:23:35.078Z,0
2016-11-04T06:24:50.013Z,5
2016-11-04T06:25:35.110Z,5
2016-11-04T06:26:35.127Z,5
2016-11-04T06:27:35.160Z,5
2016-11-04T06:28:50.088Z,5
2016-11-04T06:29:50.103Z,5
2016-11-04T06:30:35.204Z,5
2016-11-04T06:31:35.213Z,5
2016-11-04T06:32:35.231Z,5
2016-11-04T06:33:50.172Z,5
2016-11-04T06:34:50.187Z,5
2016-11-04T06:35:35.291Z,5
2016-11-04T06:36:35.308Z,5
2016-11-04T06:37:50.241Z,5
2016-11-04T06:38:35.340Z,5
2016-11-04T06:39:35.700Z,5
2016-11-04T06:40:35.373Z,5
2016-11-04T06:41:35.391Z,5
2016-11-04T06:42:35.421Z,5
2016-11-04T06:43:35.442Z,5
2016-11-04T06:44:35.456Z,5
2016-11-04T06:45:35.471Z,5
2016-11-04T06:46:35.800Z,5
2016-11-04T06:47:35.499Z,5
2016-11-04T06:48:35.524Z,5
2016-11-04T06:50:05.382Z,5
2016-11-04T06:50:35.559Z,5
2016-11-04T06:51:35.574Z,5
2016-11-04T06:53:50.531Z,5
2016-11-04T06:54:35.632Z,5
2016-11-04T06:55:35.651Z,5
2016-11-04T06:56:35.670Z,5
2016-11-04T06:57:35.679Z,5
2016-11-04T06:58:36.003Z,5
2016-11-04T06:59:35.723Z,5
2016-11-04T07:00:35.776Z,5
2016-11-04T07:01:35.764Z,5
2016-11-04T07:02:35.776Z,5
2016-11-04T07:03:35.794Z,5
2016-11-04T07:04:36.164Z,5
2016-11-04T07:06:35.853Z,5
2016-11-04T07:07:35.866Z,5
2016-11-04T07:08:35.881Z,5
2016-11-04T07:09:50.853Z,5
2016-11-04T07:10:35.922Z,5
2016-11-04T07:11:35.945Z,5
2016-11-04T07:12:35.966Z,5
2016-11-04T07:13:35.975Z,5
2016-11-04T07:14:36.006Z,10
2016-11-04T07:15:36.005Z,10
2016-11-04T07:16:36.019Z,10
2016-11-04T07:17:36.043Z,10
2016-11-04T07:18:36.059Z,10
2016-11-04T07:19:36.120Z,10
2016-11-04T07:20:36.104Z,15
2016-11-04T07:21:51.041Z,15
2016-11-04T07:22:51.055Z,15
2016-11-04T07:23:36.206Z,15
2016-11-04T07:24:51.101Z,20
2016-11-04T07:25:36.187Z,20
2016-11-04T07:26:36.208Z,20
2016-11-04T07:27:51.151Z,20
2016-11-04T07:28:36.550Z,20
2016-11-04T07:29:51.192Z,20
2016-11-04T07:30:36.279Z,20
2016-11-04T07:31:36.298Z,20
2016-11-04T07:32:51.250Z,25
2016-11-04T07:33:36.638Z,25
2016-11-04T07:34:36.353Z,25
2016-11-04T07:35:51.296Z,25
2016-11-04T07:36:36.492Z,30
2016-11-04T07:37:36.422Z,30
2016-11-04T07:39:51.370Z,30
2016-11-04T07:40:36.479Z,30
2016-11-04T07:41:36.784Z,35
2016-11-04T07:42:36.566Z,35
2016-11-04T07:43:36.527Z,40
2016-11-04T07:44:36.555Z,40
2016-11-04T07:45:36.554Z,40
2016-11-04T07:46:36.574Z,40
2016-11-04T07:47:51.817Z,45
2016-11-04T07:49:36.627Z,45
2016-11-04T07:50:36.652Z,45
2016-11-04T07:51:36.666Z,45
2016-11-04T07:52:36.991Z,40
2016-11-04T07:53:36.714Z,40
2016-11-04T07:54:36.719Z,40
2016-11-04T07:55:36.747Z,40
2016-11-04T07:56:51.676Z,40
2016-11-04T07:57:36.824Z,40
2016-11-04T07:58:36.845Z,35
2016-11-04T07:59:36.822Z,35
2016-11-04T08:00:51.758Z,35
2016-11-04T08:01:36.855Z,35
2016-11-04T08:02:36.880Z,35
2016-11-04T08:03:51.809Z,30
2016-11-04T08:04:36.907Z,30
2016-11-04T08:05:36.929Z,30
2016-11-04T08:06:36.953Z,25
2016-11-04T08:07:36.973Z,25
2016-11-04T08:08:36.986Z,25
2016-11-04T08:10:51.947Z,25
2016-11-04T08:11:37.061Z,25
2016-11-04T08:12:51.981Z,30
2016-11-04T08:13:37.086Z,30
2016-11-04T08:14:37.098Z,30
2016-11-04T08:15:37.112Z,35
2016-11-04T08:16:37.137Z,35
2016-11-04T08:17:37.454Z,40
2016-11-04T08:18:52.091Z,40
2016-11-04T08:19:37.190Z,45
2016-11-04T08:20:37.218Z,45
2016-11-04T08:21:37.227Z,50
2016-11-04T08:22:37.257Z,45
2016-11-04T08:23:37.271Z,50
2016-11-04T08:24:52.212Z,55
2016-11-04T08:25:37.609Z,55
2016-11-04T08:26:37.340Z,60
2016-11-04T08:27:37.343Z,60
2016-11-04T08:28:52.433Z,60
2016-11-04T08:29:37.384Z,60
2016-11-04T08:30:37.395Z,65
2016-11-04T08:31:37.419Z,65
2016-11-04T08:32:37.433Z,65
2016-11-04T08:33:37.463Z,65
2016-11-04T08:34:37.479Z,65
2016-11-04T08:35:37.504Z,65
2016-11-04T08:36:37.512Z,70
2016-11-04T08:37:37.545Z,70
2016-11-04T08:38:37.555Z,70
2016-11-04T08:39:37.572Z,75
2016-11-04T08:40:37.589Z,80
2016-11-04T08:41:37.617Z,80
2016-11-04T08:42:52.555Z,80
2016-11-04T08:43:37.748Z,80
2016-11-04T08:44:52.586Z,80
2016-11-04T08:45:37.702Z,80
2016-11-04T08:46:37.710Z,80
2016-11-04T08:49:37.768Z,75
2016-11-04T08:50:37.884Z,75
2016-11-04T08:51:37.810Z,75
2016-11-04T08:52:37.824Z,75
2016-11-04T08:53:37.843Z,75
2016-11-04T08:54:37.876Z,75
2016-11-04T08:55:52.847Z,80
2016-11-04T08:56:37.904Z,80
2016-11-04T08:57:37.916Z,85
2016-11-04T08:58:37.955Z,85
2016-11-04T09:00:07.801Z,90
2016-11-04T09:00:52.904Z,90
2016-11-04T09:01:38.299Z,95
2016-11-04T09:02:38.021Z,100
2016-11-04T09:03:38.040Z,100
2016-11-04T09:04:38.099Z,110
2016-11-04T09:05:53.003Z,125
2016-11-04T09:06:53.061Z,130
2016-11-04T09:09:53.082Z,105
2016-11-04T09:10:53.103Z,110
2016-11-04T09:11:38.204Z,105
2016-11-04T09:12:38.212Z,95
2016-11-04T09:13:38.240Z,100
2016-11-04T09:14:38.255Z,100
2016-11-04T09:15:38.279Z,110
2016-11-04T09:16:38.305Z,105
2016-11-04T09:17:38.353Z,100
2016-11-04T09:18:38.355Z,100
2016-11-04T09:19:38.362Z,100
2016-11-04T09:20:38.572Z,100
2016-11-04T09:21:38.405Z,95
2016-11-04T09:22:38.421Z,95
2016-11-04T09:23:38.478Z,95
2016-11-04T09:24:38.464Z,95
2016-11-04T09:25:53.401Z,100
2016-11-04T09:26:38.500Z,100
2016-11-04T09:28:38.537Z,95
2016-11-04T09:30:53.506Z,95
2016-11-04T09:31:53.828Z,95
2016-11-04T09:32:38.623Z,90
2016-11-04T09:33:38.650Z,90
2016-11-04T09:34:38.708Z,95
2016-11-04T09:35:38.676Z,95
2016-11-04T09:36:38.708Z,95
2016-11-04T09:37:38.724Z,100
2016-11-04T09:38:38.753Z,100
2016-11-04T09:39:38.767Z,100
2016-11-04T09:40:38.809Z,100
2016-11-04T09:41:38.818Z,105
2016-11-04T09:42:39.132Z,105
2016-11-04T09:43:39.161Z,105
2016-11-04T09:44:38.898Z,100
2016-11-04T09:45:38.941Z,95
2016-11-04T09:46:38.914Z,90
2016-11-04T09:47:53.854Z,85
2016-11-04T09:48:38.969Z,85
2016-11-04T09:49:38.973Z,80
2016-11-04T09:50:38.993Z,75
2016-11-04T09:51:39.015Z,75
2016-11-04T09:52:39.032Z,75
2016-11-04T09:53:39.046Z,75
2016-11-04T09:54:39.075Z,75
2016-11-04T09:55:39.103Z,80
2016-11-04T09:56:39.117Z,80
2016-11-04T09:57:54.066Z,85
2016-11-04T09:58:54.077Z,90
2016-11-04T09:59:39.183Z,90
2016-11-04T10:00:39.195Z,90
2016-11-04T10:01:39.218Z,95
2016-11-04T10:03:09.080Z,95
2016-11-04T10:03:54.213Z,95
2016-11-04T10:04:39.294Z,95
2016-11-04T10:05:39.346Z,90
2016-11-04T10:06:39.343Z,90
2016-11-04T10:07:39.339Z,90
2016-11-04T10:08:39.368Z,90
2016-11-04T10:09:39.388Z,95
2016-11-04T10:10:39.414Z,95
2016-11-04T10:11:54.348Z,95
2016-11-04T10:12:39.448Z,95
2016-11-04T10:13:39.459Z,100
2016-11-04T10:14:39.478Z,100
2016-11-04T10:16:39.528Z,105
2016-11-04T10:17:39.548Z,110
2016-11-04T10:18:54.488Z,110
2016-11-04T10:20:09.430Z,110
2016-11-04T10:20:39.647Z,110
2016-11-04T10:21:39.827Z,105
2016-11-04T10:22:39.645Z,105
2016-11-04T10:23:39.678Z,100
2016-11-04T10:24:39.696Z,95
2016-11-04T10:25:40.028Z,95
2016-11-04T10:26:39.738Z,90
2016-11-04T10:27:39.762Z,85
2016-11-04T10:29:54.714Z,80
2016-11-04T10:30:39.820Z,80
2016-11-04T10:31:39.843Z,80
2016-11-04T10:32:39.871Z,85
2016-11-04T10:33:39.880Z,80
2016-11-04T10:35:09.746Z,80
2016-11-04T10:35:39.925Z,80
2016-11-04T10:36:39.948Z,85
2016-11-04T10:37:39.970Z,80
2016-11-04T10:38:40.000Z,80
2016-11-04T10:39:40.045Z,80
2016-11-04T10:40:40.023Z,80
2016-11-04T10:41:55.010Z,80
2016-11-04T10:42:54.989Z,80
2016-11-04T10:43:41.101Z,80
2016-11-04T10:44:40.121Z,80
2016-11-04T10:45:55.060Z,80
2016-11-04T10:47:40.222Z,80
2016-11-04T10:48:40.207Z,80
2016-11-04T10:49:40.229Z,80
2016-11-04T10:50:40.311Z,80
2016-11-04T10:51:40.257Z,80
2016-11-04T10:52:40.277Z,80
2016-11-04T10:53:40.308Z,80
2016-11-04T10:54:40.321Z,85
2016-11-04T10:55:40.400Z,85
2016-11-04T10:56:40.369Z,85
2016-11-04T10:57:40.385Z,80
2016-11-04T10:58:40.415Z,80
2016-11-04T10:59:40.429Z,80
2016-11-04T11:00:40.502Z,80
2016-11-04T11:01:40.474Z,80
2016-11-04T11:02:40.486Z,85
2016-11-04T11:03:40.549Z,85
2016-11-04T11:04:40.544Z,85
2016-11-04T11:05:40.551Z,85
2016-11-04T11:06:55.799Z,80
2016-11-04T11:07:40.633Z,80
2016-11-04T11:08:40.621Z,80
2016-11-04T11:10:55.583Z,75
2016-11-04T11:11:40.689Z,75
2016-11-04T11:12:55.623Z,75
2016-11-04T11:13:40.726Z,75
2016-11-04T11:14:40.759Z,75
2016-11-04T11:15:40.760Z,75
2016-11-04T11:16:55.704Z,75
2016-11-04T11:17:40.816Z,80
2016-11-04T11:18:55.754Z,80
2016-11-04T11:19:40.856Z,80
2016-11-04T11:20:40.873Z,85
2016-11-04T11:21:55.814Z,85
2016-11-04T11:22:55.846Z,85
2016-11-04T11:23:40.943Z,85
2016-11-04T11:24:40.955Z,85
2016-11-04T11:25:40.979Z,85
2016-11-04T11:27:41.023Z,90
2016-11-04T11:29:55.984Z,90
2016-11-04T11:30:41.092Z,90
2016-11-04T11:31:41.107Z,90
2016-11-04T11:32:41.120Z,90
2016-11-04T11:33:41.159Z,90
2016-11-04T11:34:41.177Z,90
2016-11-04T11:35:56.115Z,90
2016-11-04T11:36:41.210Z,90
2016-11-04T11:38:11.079Z,90
2016-11-04T11:38:56.187Z,90
2016-11-04T11:39:41.274Z,90
2016-11-04T11:40:56.221Z,90
2016-11-04T11:41:41.335Z,90
2016-11-04T11:42:41.345Z,90
2016-11-04T11:43:56.285Z,90
2016-11-04T11:44:56.304Z,90
2016-11-04T11:46:41.424Z,85
2016-11-04T11:47:56.377Z,85
2016-11-04T11:48:41.474Z,80
2016-11-04T11:49:41.527Z,75
2016-11-04T11:50:41.517Z,75
2016-11-04T11:51:41.535Z,70
2016-11-04T11:52:41.565Z,65
2016-11-04T11:53:41.572Z,65
2016-11-04T11:54:56.518Z,60
2016-11-04T11:55:41.616Z,55
2016-11-04T11:56:41.635Z,55
2016-11-04T11:57:56.586Z,55
2016-11-04T11:58:56.620Z,55
2016-11-04T11:59:56.627Z,55
2016-11-04T12:00:41.730Z,55
2016-11-04T12:01:41.746Z,55
2016-11-04T12:02:41.767Z,55
2016-11-04T12:03:41.781Z,55
2016-11-04T12:04:56.736Z,55
2016-11-04T12:05:41.836Z,55
2016-11-04T12:06:41.850Z,55
2016-11-04T12:07:41.880Z,55
2016-11-04T12:08:56.819Z,55
2016-11-04T12:09:56.842Z,55
2016-11-04T12:10:41.939Z,55
2016-11-04T12:11:41.965Z,55
2016-11-04T12:12:41.981Z,55
2016-11-04T12:13:42.018Z,60
2016-11-04T12:14:42.026Z,60
2016-11-04T12:15:42.051Z,60
2016-11-04T12:16:42.065Z,60
2016-11-04T12:17:42.098Z,60
2016-11-04T12:18:42.118Z,60
2016-11-04T12:19:42.129Z,65
2016-11-04T12:20:42.252Z,65
2016-11-04T12:21:57.097Z,65
2016-11-04T12:22:42.199Z,65
2016-11-04T12:23:42.208Z,70
2016-11-04T12:24:42.233Z,70
2016-11-04T12:25:42.256Z,70
2016-11-04T12:26:42.284Z,70
2016-11-04T12:27:42.382Z,70
2016-11-04T12:28:42.324Z,65
2016-11-04T12:29:42.388Z,65
2016-11-04T12:30:57.294Z,65
2016-11-04T12:31:42.687Z,65
2016-11-04T12:33:57.357Z,65
2016-11-04T12:34:42.457Z,65
2016-11-04T12:35:42.468Z,65
2016-11-04T12:37:42.520Z,65
2016-11-04T12:38:42.539Z,65
2016-11-04T12:39:57.483Z,65
2016-11-04T12:40:42.887Z,65
2016-11-04T12:41:57.524Z,60
2016-11-04T12:42:42.618Z,60
2016-11-04T12:43:57.566Z,60
2016-11-04T12:44:42.660Z,60
2016-11-04T12:45:42.683Z,60
2016-11-04T12:46:42.703Z,60
2016-11-04T12:47:42.726Z,60
2016-11-04T12:48:42.748Z,65
2016-11-04T12:49:42.774Z,65
2016-11-04T12:51:42.810Z,60
2016-11-04T12:52:42.842Z,60
2016-11-04T12:53:57.775Z,60
2016-11-04T12:54:42.877Z,60
2016-11-04T12:55:42.900Z,60
2016-11-04T12:56:42.923Z,60
2016-11-04T12:58:42.956Z,60
2016-11-04T12:59:42.984Z,60
2016-11-04T13:00:43.007Z,60
2016-11-04T13:01:43.033Z,60
2016-11-04T13:02:43.043Z,60
2016-11-04T13:03:43.067Z,60
2016-11-04T13:04:43.091Z,55
2016-11-04T13:05:43.118Z,55
2016-11-04T13:07:58.084Z,55
2016-11-04T13:08:43.179Z,55
2016-11-04T13:09:43.520Z,55
2016-11-04T13:10:43.213Z,55
2016-11-04T13:11:43.237Z,55
2016-11-04T13:12:58.185Z,50
2016-11-04T13:13:58.243Z,50
2016-11-04T13:14:58.228Z,50
2016-11-04T13:15:43.325Z,50
2016-11-04T13:16:43.345Z,50
2016-11-04T13:17:58.288Z,50
2016-11-04T13:18:43.388Z,50
2016-11-04T13:19:58.328Z,50
2016-11-04T13:20:43.433Z,50
2016-11-04T13:21:43.445Z,50
2016-11-04T13:22:43.501Z,50
2016-11-04T13:23:43.497Z,50
2016-11-04T13:24:43.516Z,50
2016-11-04T13:25:43.530Z,50
2016-11-04T13:26:58.483Z,50
2016-11-04T13:27:58.510Z,45
2016-11-04T13:28:58.522Z,45
2016-11-04T13:30:13.463Z,45
2016-11-04T13:30:58.565Z,45
2016-11-04T13:31:43.661Z,45
2016-11-04T13:32:43.682Z,40
2016-11-04T13:33:58.624Z,40
2016-11-04T13:34:43.729Z,40
2016-11-04T13:35:43.743Z,40
2016-11-04T13:36:43.779Z,40
2016-11-04T13:37:43.834Z,40
2016-11-04T13:39:44.323Z,40
2016-11-04T13:40:43.854Z,40
2016-11-04T13:42:58.825Z,40
2016-11-04T13:44:58.861Z,40
2016-11-04T13:45:58.884Z,40
2016-11-04T13:46:43.982Z,40
2016-11-04T13:47:44.011Z,35
2016-11-04T13:48:44.038Z,35
2016-11-04T13:49:44.054Z,35
2016-11-04T13:50:44.062Z,35
2016-11-04T13:51:44.096Z,35
2016-11-04T13:52:44.113Z,35
2016-11-04T13:54:44.199Z,35
2016-11-04T13:55:44.165Z,35
2016-11-04T13:56:44.201Z,35
2016-11-04T13:57:59.139Z,35
2016-11-04T13:58:44.229Z,35
2016-11-04T13:59:44.258Z,35
2016-11-04T14:00:44.522Z,35
2016-11-04T14:01:59.221Z,35
2016-11-04T14:02:44.318Z,35
2016-11-04T14:03:44.349Z,35
2016-11-04T14:04:44.359Z,30
2016-11-04T14:05:59.299Z,30
2016-11-04T14:06:44.417Z,30
2016-11-04T14:07:44.418Z,30
2016-11-04T14:08:44.450Z,30
2016-11-04T14:09:59.383Z,35
2016-11-04T14:10:44.481Z,35
2016-11-04T14:11:44.783Z,35
2016-11-04T14:12:44.522Z,35
2016-11-04T14:13:59.464Z,35
2016-11-04T14:14:44.626Z,35
2016-11-04T14:15:44.584Z,35
2016-11-04T14:16:59.539Z,35
2016-11-04T14:17:44.629Z,35
2016-11-04T14:18:44.645Z,35
2016-11-04T14:20:44.686Z,30
2016-11-04T14:21:44.716Z,30
2016-11-04T14:22:45.435Z,30
2016-11-04T14:23:44.782Z,30
2016-11-04T14:24:44.781Z,30
2016-11-04T14:25:44.795Z,30
2016-11-04T14:26:44.816Z,25
2016-11-04T14:27:44.840Z,25
2016-11-04T14:28:44.854Z,25
2016-11-04T14:29:44.890Z,25
2016-11-04T14:30:59.826Z,25
2016-11-04T14:31:45.223Z,25
2016-11-04T14:33:15.043Z,20
2016-11-04T14:33:44.972Z,20
2016-11-04T14:34:59.913Z,20
2016-11-04T14:35:45.009Z,20
2016-11-04T14:36:45.026Z,20
2016-11-04T14:37:59.973Z,15
2016-11-04T14:38:45.076Z,15
2016-11-04T14:39:45.092Z,15
2016-11-04T14:40:45.109Z,15
2016-11-04T14:41:45.123Z,15
2016-11-04T14:42:45.176Z,15
2016-11-04T14:44:00.100Z,15
2016-11-04T14:44:45.187Z,15
2016-11-04T14:46:45.235Z,10
2016-11-04T14:47:45.487Z,10
2016-11-04T14:49:00.206Z,10
2016-11-04T14:49:45.294Z,10
2016-11-04T14:50:45.327Z,10
2016-11-04T14:51:45.337Z,10
2016-11-04T14:52:45.663Z,10
2016-11-04T14:54:00.306Z,10
2016-11-04T14:54:45.404Z,10
2016-11-04T14:55:45.418Z,10
2016-11-04T14:57:00.403Z,5
2016-11-04T14:57:45.468Z,5
2016-11-04T14:59:00.409Z,5
2016-11-04T15:00:00.433Z,5
2016-11-04T15:01:00.451Z,5
2016-11-04T15:01:45.550Z,5
2016-11-04T15:02:45.560Z,5
2016-11-04T15:04:00.512Z,5
2016-11-04T15:05:15.454Z,5
2016-11-04T15:05:45.636Z,5
2016-11-04T15:06:45.648Z,5
2016-11-04T15:07:45.677Z,5
2016-11-04T15:08:45.689Z,5
2016-11-04T15:10:00.634Z,5
2016-11-04T15:10:45.735Z,5
2016-11-04T15:12:45.768Z,5
2016-11-04T15:13:45.792Z,0
2016-11-04T15:15:45.845Z,0
2016-11-04T15:16:45.854Z,0
2016-11-04T15:17:45.879Z,0